createdAt,value
2018-12-03T04:01:20.129Z,12.28
2018-12-03T04:06:03.821Z,12.28
2018-12-03T04:11:03.832Z,12.28
2018-12-03T04:16:03.133Z,12.28
2018-12-03T04:21:03.609Z,12.28
2018-12-03T04:26:03.882Z,12.38
2018-12-03T04:31:03.145Z,12.38
2018-12-03T04:36:03.609Z,12.38
2018-12-03T04:41:03.180Z,12.28
2018-12-03T04:46:03.462Z,12.38
2018-12-03T04:51:03.961Z,12.38
2018-12-03T04:56:03.159Z,12.38
2018-12-03T05:01:03.418Z,12.28
2018-12-03T05:06:03.920Z,12.28
2018-12-03T05:11:03.512Z,12.18
2018-12-03T05:16:03.794Z,12.18
2018-12-03T05:21:03.285Z,12.18
2018-12-03T05:26:03.827Z,12.18
2018-12-03T05:31:03.371Z,12.18
2018-12-03T05:36:03.795Z,12.18
2018-12-03T05:41:03.373Z,12.08
2018-12-03T05:46:03.645Z,12.08
2018-12-03T05:51:03.084Z,12.08
2018-12-03T05:56:03.286Z,12.18
2018-12-03T06:01:03.586Z,12.08
2018-12-03T06:06:03.035Z,12.08
2018-12-03T06:11:03.615Z,12.08
2018-12-03T06:16:02.946Z,12.08
2018-12-03T06:21:03.423Z,12.08
2018-12-03T06:26:03.641Z,11.98
2018-12-03T06:31:03.945Z,11.98
2018-12-03T06:36:03.394Z,11.98
2018-12-03T06:41:02.988Z,11.88
2018-12-03T06:46:03.271Z,11.88
2018-12-03T06:51:03.737Z,11.88
2018-12-03T06:56:02.939Z,11.88
2018-12-03T07:01:03.224Z,11.78
2018-12-03T07:06:03.717Z,11.78
2018-12-03T07:11:03.327Z,11.78
2018-12-03T07:16:03.624Z,11.78
2018-12-03T07:21:03.144Z,11.88
2018-12-03T07:26:03.356Z,11.88
2018-12-03T07:31:03.630Z,11.88
2018-12-03T07:36:03.118Z,11.78
2018-12-03T07:41:03.696Z,11.78
2018-12-03T07:46:03.394Z,11.88
2018-12-03T07:51:03.438Z,11.68
2018-12-03T07:56:03.661Z,11.78
2018-12-03T15:16:09.084Z,11.68
2018-12-03T15:21:03.145Z,11.68
2018-12-03T15:26:03.353Z,11.68
2018-12-03T15:31:03.669Z,11.58
2018-12-03T15:36:03.113Z,11.58
2018-12-03T15:41:03.128Z,11.48
2018-12-03T15:46:03.422Z,11.58
2018-12-03T15:51:03.886Z,11.58
2018-12-03T15:56:03.100Z,11.58
2018-12-03T16:01:03.404Z,11.48
2018-12-03T16:06:03.841Z,11.48
2018-12-03T16:11:03.452Z,11.48
2018-12-03T16:16:03.712Z,11.38
2018-12-03T16:21:03.621Z,11.38
2018-12-03T16:26:03.458Z,11.48
2018-12-03T16:31:03.738Z,11.48
2018-12-03T16:36:03.236Z,11.48
2018-12-03T16:41:03.786Z,11.48
2018-12-03T16:46:03.067Z,11.48
2018-12-03T16:51:03.564Z,11.48
2018-12-03T16:56:03.728Z,11.48
2018-12-03T17:01:03.078Z,11.38
2018-12-03T17:06:03.502Z,11.38
2018-12-03T17:11:03.161Z,11.38
2018-12-03T17:16:03.393Z,11.38
2018-12-03T17:21:04.281Z,11.28
2018-12-03T17:26:03.097Z,11.38
2018-12-03T17:31:03.383Z,11.28
2018-12-03T17:36:03.834Z,11.28
2018-12-03T17:41:03.426Z,11.28
2018-12-03T17:46:03.722Z,11.28
2018-12-03T17:51:03.164Z,11.28
2018-12-03T17:56:03.375Z,11.28
2018-12-03T18:01:03.640Z,11.18
2018-12-03T18:06:03.097Z,11.28
2018-12-03T18:11:03.704Z,11.28
2018-12-03T18:16:03.014Z,11.28
2018-12-03T18:21:03.488Z,11.28
2018-12-03T18:26:03.714Z,11.38
2018-12-03T18:31:03.033Z,11.38
2018-12-03T18:36:03.431Z,11.28
2018-12-03T18:41:04.241Z,11.28
2018-12-03T18:46:03.728Z,11.38
2018-12-03T18:51:03.819Z,11.38
2018-12-03T18:56:03.053Z,11.38
2018-12-03T19:01:03.353Z,11.38
2018-12-03T19:06:03.822Z,11.38
2018-12-03T19:11:03.438Z,11.38
2018-12-03T19:16:03.748Z,11.38
2018-12-03T19:21:03.215Z,11.38
2018-12-03T19:26:03.857Z,11.48
2018-12-03T19:31:03.720Z,11.38
2018-12-03T19:36:03.190Z,11.28
2018-12-03T19:41:03.813Z,11.38
2018-12-03T19:46:03.123Z,11.28
2018-12-03T19:51:03.528Z,11.28
2018-12-03T19:56:03.788Z,11.38
2018-12-03T20:01:03.090Z,11.28
2018-12-03T20:06:03.547Z,11.28
2018-12-03T20:11:03.160Z,11.28
2018-12-03T20:16:03.512Z,11.28
2018-12-03T20:21:03.945Z,11.18
2018-12-03T20:26:03.139Z,11.28
2018-12-03T20:31:03.393Z,11.28
2018-12-03T20:36:03.862Z,11.28
2018-12-03T20:41:03.482Z,11.28
2018-12-03T20:46:03.752Z,11.28
2018-12-03T20:51:03.169Z,11.18
2018-12-03T20:56:03.391Z,11.18
2018-12-03T21:01:03.727Z,11.08
2018-12-03T21:06:03.176Z,11.18
2018-12-03T21:11:03.910Z,10.98
2018-12-03T21:16:03.154Z,10.98
2018-12-03T21:21:03.598Z,10.98
2018-12-03T21:26:03.766Z,10.98
2018-12-03T21:31:03.093Z,10.98
2018-12-03T21:36:03.577Z,10.98
2018-12-03T21:41:03.159Z,10.98
2018-12-03T21:46:03.471Z,10.88
2018-12-03T21:51:03.941Z,10.98
2018-12-03T21:56:03.286Z,10.88
2018-12-03T22:01:03.380Z,10.88
2018-12-03T22:06:03.860Z,10.88
2018-12-03T22:11:03.489Z,10.88
2018-12-03T22:16:03.782Z,10.88
2018-12-03T22:21:03.275Z,10.78
2018-12-03T22:26:03.487Z,10.78
2018-12-03T22:31:03.821Z,10.78
2018-12-03T22:36:03.248Z,10.78
2018-12-03T22:41:03.827Z,10.88
